createdAt,value
2019-03-01T00:02:13.856Z,34.63
2019-03-01T00:05:01.442Z,28.40
2019-03-01T00:07:43.180Z,27.27
2019-03-01T00:10:31.310Z,31.23
2019-03-01T00:13:48.017Z,31.77
2019-03-01T00:16:45.644Z,29.73
2019-03-01T00:20:02.253Z,29.83
2019-03-01T00:22:51.803Z,28.50
2019-03-01T00:27:34.272Z,29.60
2019-03-01T00:30:51.920Z,30.07
2019-03-01T00:33:36.899Z,22.77
2019-03-01T00:36:19.575Z,25.80
2019-03-01T00:39:00.387Z,23.87
2019-03-01T00:41:47.228Z,20.77
2019-03-01T00:44:32.407Z,25.87
2019-03-01T00:47:02.504Z,28.77
2019-03-01T00:49:33.463Z,26.47
2019-03-01T00:52:03.604Z,21.57
2019-03-01T00:54:34.210Z,27.73
2019-03-01T00:57:04.475Z,25.87
2019-03-01T00:59:34.647Z,18.90
2019-03-01T01:02:05.310Z,25.27
2019-03-01T01:04:35.499Z,16.03
2019-03-01T01:07:05.036Z,24.33
2019-03-01T01:09:35.409Z,14.10
2019-03-01T01:12:05.518Z,21.87
2019-03-01T01:14:38.077Z,18.87
2019-03-01T01:17:08.522Z,23.33
2019-03-01T01:19:38.652Z,18.80
2019-03-01T01:22:08.688Z,25.83
2019-03-01T01:24:38.771Z,25.50
2019-03-01T01:27:08.856Z,20.23
2019-03-01T01:29:38.980Z,26.33
2019-03-01T01:32:09.304Z,25.53
2019-03-01T01:34:39.413Z,25.07
2019-03-01T01:37:09.710Z,24.70
2019-03-01T01:39:39.815Z,18.97
2019-03-01T01:42:09.952Z,25.77
2019-03-01T01:44:40.120Z,24.70
2019-03-01T01:47:10.231Z,27.00
2019-03-01T01:49:40.314Z,24.87
2019-03-01T01:52:10.379Z,22.87
2019-03-01T01:54:40.532Z,18.73
2019-03-01T01:57:10.575Z,26.40
2019-03-01T01:59:40.652Z,21.97
2019-03-01T02:02:10.763Z,17.60
2019-03-01T02:04:40.897Z,26.63
2019-03-01T02:07:11.014Z,16.03
2019-03-01T02:09:41.213Z,21.63
2019-03-01T02:12:11.624Z,22.67
2019-03-01T02:14:41.740Z,23.43
2019-03-01T02:17:12.059Z,13.27
2019-03-01T02:19:42.205Z,18.50
2019-03-01T02:22:12.323Z,16.63
2019-03-01T02:24:42.509Z,18.03
2019-03-01T02:27:22.103Z,21.57
2019-03-01T02:29:52.218Z,21.07
2019-03-01T02:32:28.995Z,21.70
2019-03-01T02:34:59.109Z,22.13
2019-03-01T02:37:29.211Z,22.97
2019-03-01T02:39:59.346Z,25.67
2019-03-01T02:42:29.472Z,24.97
2019-03-01T02:44:59.641Z,25.40
2019-03-01T02:47:29.749Z,26.00
2019-03-01T02:49:59.893Z,17.60
2019-03-01T02:52:30.012Z,17.77
2019-03-01T02:55:00.256Z,18.93
2019-03-01T02:57:30.358Z,23.80
2019-03-01T03:00:01.228Z,23.53
2019-03-01T03:02:31.360Z,22.30
2019-03-01T03:06:25.498Z,24.67
2019-03-01T03:08:55.754Z,21.27
2019-03-01T03:11:25.904Z,23.57
2019-03-01T03:13:56.000Z,23.37
2019-03-01T03:16:26.309Z,25.03
2019-03-01T03:18:56.429Z,25.57
2019-03-01T03:21:26.501Z,25.50
2019-03-01T03:23:56.624Z,24.70
2019-03-01T03:26:27.115Z,24.73
2019-03-01T03:28:57.244Z,24.97
2019-03-01T03:31:27.364Z,25.33
2019-03-01T03:33:57.483Z,23.97
2019-03-01T03:36:27.664Z,23.27
2019-03-01T03:38:57.801Z,28.17
2019-03-01T03:41:27.983Z,26.43
2019-03-01T03:43:58.046Z,26.13
2019-03-01T03:46:28.161Z,24.37
2019-03-01T03:48:58.302Z,28.73
2019-03-01T03:51:28.430Z,27.33
2019-03-01T03:53:58.539Z,25.50
2019-03-01T03:56:28.976Z,29.87
2019-03-01T03:58:59.115Z,27.17
2019-03-01T04:01:29.292Z,26.30
2019-03-01T04:03:59.451Z,24.43
2019-03-01T04:06:29.592Z,27.60
2019-03-01T04:09:00.036Z,23.77
2019-03-01T04:11:30.205Z,25.13
2019-03-01T04:14:00.267Z,28.50
2019-03-01T04:16:30.512Z,27.90
2019-03-01T04:19:00.569Z,29.83
2019-03-01T04:21:30.715Z,32.77
2019-03-01T04:24:00.848Z,29.83
2019-03-01T04:26:31.032Z,27.50
2019-03-01T04:29:01.175Z,28.20
2019-03-01T04:31:31.293Z,26.77
2019-03-01T04:34:01.384Z,27.03
2019-03-01T04:36:31.542Z,29.13
2019-03-01T04:39:01.668Z,31.57
2019-03-01T04:41:31.824Z,28.77
2019-03-01T04:44:01.371Z,29.07
2019-03-01T04:46:31.442Z,28.57
2019-03-01T04:49:01.571Z,28.00
2019-03-01T04:51:39.921Z,31.13
2019-03-01T04:54:01.846Z,32.80
2019-03-01T04:56:31.959Z,28.47
2019-03-01T04:59:02.088Z,27.03
2019-03-01T05:01:32.179Z,26.40
2019-03-01T05:04:02.263Z,27.50
2019-03-01T05:06:32.382Z,25.97
2019-03-01T05:09:02.542Z,25.43
2019-03-01T05:11:33.118Z,25.90
2019-03-01T05:14:03.263Z,26.87
2019-03-01T05:16:33.435Z,26.60
2019-03-01T05:19:03.521Z,33.43
2019-03-01T05:21:33.096Z,35.57
2019-03-01T05:24:03.011Z,37.00
2019-03-01T05:26:33.063Z,36.17
2019-03-01T05:29:03.445Z,32.90
2019-03-01T05:31:33.532Z,30.00
2019-03-01T05:34:03.652Z,32.40
2019-03-01T05:36:33.786Z,25.47
2019-03-01T05:39:04.393Z,24.90
2019-03-01T05:41:34.510Z,24.33
2019-03-01T05:44:04.680Z,25.00
2019-03-01T05:46:34.802Z,24.63
2019-03-01T05:49:04.871Z,25.27
2019-03-01T05:51:35.003Z,24.97
2019-03-01T05:54:05.079Z,25.90
2019-03-01T05:56:35.244Z,25.93
2019-03-01T05:59:14.851Z,26.63
2019-03-01T06:01:52.187Z,26.13
2019-03-01T06:04:29.508Z,27.00
2019-03-01T06:07:13.828Z,28.43
2019-03-01T06:09:51.578Z,30.93
2019-03-01T06:13:36.040Z,32.20
2019-03-01T06:16:16.679Z,34.33
2019-03-01T06:18:59.374Z,32.63
2019-03-01T06:21:47.981Z,31.30
2019-03-01T06:24:29.540Z,29.87
2019-03-01T06:27:03.316Z,31.03
2019-03-01T06:29:51.272Z,32.00
2019-03-01T06:32:32.047Z,30.20
2019-03-01T06:35:30.115Z,30.53
2019-03-01T06:38:21.390Z,28.63
2019-03-01T06:41:20.725Z,34.03
2019-03-01T06:44:02.368Z,33.03
2019-03-01T06:46:43.672Z,28.87
2019-03-01T06:49:18.633Z,34.97
2019-03-01T06:51:48.808Z,29.13
2019-03-01T06:54:18.900Z,29.27
2019-03-01T06:56:49.719Z,29.67
2019-03-01T06:59:19.795Z,27.77
2019-03-01T07:01:49.972Z,28.43
2019-03-01T07:04:20.407Z,27.80
2019-03-01T07:06:50.550Z,28.23
2019-03-01T07:09:20.691Z,30.77
2019-03-01T07:11:50.846Z,28.87
2019-03-01T07:14:20.867Z,30.60
2019-03-01T07:16:50.971Z,27.80
2019-03-01T07:19:21.089Z,29.40
2019-03-01T07:21:51.167Z,28.00
2019-03-01T07:24:21.369Z,27.20
2019-03-01T07:26:51.891Z,29.57
2019-03-01T07:29:21.991Z,28.33
2019-03-01T07:31:52.161Z,24.30
2019-03-01T07:34:22.149Z,24.13
2019-03-01T07:36:52.218Z,24.57
2019-03-01T07:39:21.753Z,22.23
2019-03-01T07:41:51.974Z,19.27
2019-03-01T07:44:22.281Z,24.37
2019-03-01T07:46:54.074Z,22.47
2019-03-01T07:49:23.301Z,23.03
2019-03-01T07:51:53.854Z,20.00
2019-03-01T07:54:24.191Z,23.00
2019-03-01T07:56:54.596Z,22.83
2019-03-01T07:59:24.687Z,24.53
2019-03-01T08:01:55.924Z,21.00
2019-03-01T08:04:28.808Z,26.37
2019-03-01T08:06:55.243Z,18.93
2019-03-01T08:09:25.345Z,21.23
2019-03-01T08:11:55.487Z,17.30
2019-03-01T08:14:28.055Z,23.27
2019-03-01T08:16:56.167Z,21.23
2019-03-01T08:19:26.020Z,17.03
2019-03-01T08:21:56.082Z,17.37
2019-03-01T08:24:26.131Z,24.47
2019-03-01T08:26:57.122Z,17.43
2019-03-01T08:29:26.374Z,22.53
2019-03-01T08:31:56.815Z,17.53
2019-03-01T08:34:26.863Z,21.07
2019-03-01T08:36:56.995Z,22.13
2019-03-01T08:39:27.004Z,23.77
2019-03-01T08:42:00.171Z,24.33
2019-03-01T08:44:27.219Z,20.30
2019-03-01T08:46:57.305Z,24.60
2019-03-01T08:49:27.362Z,20.93
2019-03-01T08:51:58.506Z,19.23
2019-03-01T08:54:27.650Z,17.47
2019-03-01T08:56:57.701Z,13.50
2019-03-01T08:59:27.734Z,16.47
2019-03-01T09:01:57.820Z,15.67
2019-03-01T09:04:28.288Z,16.00
2019-03-01T09:06:58.389Z,19.87
2019-03-01T09:09:28.405Z,17.03
2019-03-01T09:11:58.522Z,18.30
2019-03-01T09:14:28.721Z,19.00
2019-03-01T09:16:58.817Z,17.87
2019-03-01T09:19:29.264Z,17.57
2019-03-01T09:21:59.543Z,20.07
2019-03-01T09:24:30.038Z,13.60
2019-03-01T09:26:59.746Z,17.77
2019-03-01T09:29:29.880Z,18.20
2019-03-01T09:31:59.964Z,18.03
2019-03-01T09:34:32.256Z,18.20
2019-03-01T09:37:00.284Z,17.83
2019-03-01T09:39:32.498Z,18.60
2019-03-01T09:42:05.377Z,17.20
2019-03-01T09:44:30.686Z,17.80
2019-03-01T09:47:01.741Z,17.60
2019-03-01T09:49:30.368Z,18.50
2019-03-01T09:52:00.484Z,17.40
2019-03-01T09:54:30.542Z,14.10
2019-03-01T09:57:00.996Z,17.30
2019-03-01T09:59:31.004Z,18.23
2019-03-01T10:02:01.424Z,17.97
2019-03-01T10:04:31.898Z,19.53
2019-03-01T10:07:02.009Z,16.60
2019-03-01T10:09:32.029Z,16.17
2019-03-01T10:12:02.103Z,19.97
2019-03-01T10:14:32.128Z,13.90
2019-03-01T10:17:02.217Z,17.07
2019-03-01T10:19:32.277Z,18.00
2019-03-01T10:22:02.396Z,17.13
2019-03-01T10:24:32.456Z,18.93
2019-03-01T10:27:03.104Z,17.30
2019-03-01T10:29:32.711Z,22.67
2019-03-01T10:32:02.826Z,19.07
2019-03-01T10:34:32.842Z,17.87
2019-03-01T10:37:02.923Z,18.97
2019-03-01T10:39:32.961Z,19.57
2019-03-01T10:42:03.052Z,17.00
2019-03-01T10:44:33.072Z,17.90
2019-03-01T10:47:03.192Z,18.97
2019-03-01T10:49:33.220Z,20.03
2019-03-01T10:52:03.483Z,17.23
2019-03-01T10:54:32.931Z,19.67
2019-03-01T10:57:02.872Z,18.17
2019-03-01T10:59:32.944Z,21.13
2019-03-01T11:02:02.962Z,19.97
2019-03-01T11:04:33.703Z,18.10
2019-03-01T11:07:03.776Z,31.83
2019-03-01T11:09:33.866Z,17.67
2019-03-01T11:12:03.977Z,19.00
2019-03-01T11:14:34.105Z,19.27
2019-03-01T11:17:04.231Z,19.73
2019-03-01T11:19:34.355Z,19.13
2019-03-01T11:22:04.529Z,21.87
2019-03-01T11:24:34.612Z,21.80
2019-03-01T11:27:12.679Z,23.93
2019-03-01T11:29:34.880Z,23.67
2019-03-01T11:32:04.971Z,24.93
2019-03-01T11:34:36.234Z,23.47
2019-03-01T11:37:05.215Z,26.90
2019-03-01T11:39:35.303Z,23.67
2019-03-01T11:42:05.398Z,22.47
2019-03-01T11:44:35.468Z,23.70
2019-03-01T11:47:05.556Z,23.13
2019-03-01T11:49:35.696Z,27.90
2019-03-01T11:52:05.764Z,25.93
2019-03-01T11:54:35.841Z,24.60
2019-03-01T11:57:05.932Z,23.97
2019-03-01T11:59:36.030Z,24.20
2019-03-01T12:02:06.088Z,25.17
2019-03-01T12:04:36.391Z,23.80
2019-03-01T12:07:06.453Z,25.07
2019-03-01T12:09:36.552Z,26.00
2019-03-01T12:12:06.597Z,26.37
2019-03-01T12:14:36.662Z,27.53
2019-03-01T12:17:06.771Z,26.97
2019-03-01T12:19:36.876Z,26.73
2019-03-01T12:22:06.925Z,26.40
2019-03-01T12:24:37.004Z,24.07
2019-03-01T12:27:07.056Z,23.33
2019-03-01T12:29:37.135Z,22.73
2019-03-01T12:32:07.154Z,23.63
2019-03-01T12:34:37.267Z,21.50
2019-03-01T12:37:07.314Z,21.97
2019-03-01T12:39:37.399Z,24.57
2019-03-01T12:42:07.440Z,22.13
2019-03-01T12:44:37.510Z,25.00
2019-03-01T12:47:07.592Z,28.33
2019-03-01T12:49:37.709Z,28.90
2019-03-01T12:52:07.740Z,27.70
2019-03-01T12:54:37.835Z,24.60
2019-03-01T12:57:07.881Z,25.67
2019-03-01T12:59:38.252Z,25.83
2019-03-01T13:02:08.302Z,25.73
2019-03-01T13:04:38.920Z,29.40
2019-03-01T13:07:10.494Z,28.03
2019-03-01T13:09:39.169Z,42.93
2019-03-01T13:12:09.202Z,28.23
2019-03-01T13:14:39.554Z,28.77
2019-03-01T13:17:09.387Z,25.20
2019-03-01T13:19:39.496Z,29.70
2019-03-01T13:22:09.575Z,29.27
2019-03-01T13:24:40.620Z,27.37
2019-03-01T13:27:10.901Z,26.67
2019-03-01T13:29:40.025Z,29.00
2019-03-01T13:32:10.034Z,27.97
2019-03-01T13:34:40.143Z,29.43
2019-03-01T13:37:14.716Z,27.00
2019-03-01T13:39:40.383Z,28.70
2019-03-01T13:42:13.331Z,29.07
2019-03-01T13:44:40.738Z,29.57
2019-03-01T13:47:10.750Z,31.00
2019-03-01T13:49:40.875Z,31.03
2019-03-01T13:52:10.913Z,29.67
2019-03-01T13:54:42.408Z,28.07
2019-03-01T13:57:11.451Z,29.53
2019-03-01T13:59:43.871Z,29.80
2019-03-01T14:02:11.479Z,31.17
2019-03-01T14:04:42.172Z,32.10
2019-03-01T14:07:12.341Z,27.40
2019-03-01T14:09:42.433Z,29.63
2019-03-01T14:12:12.465Z,26.27
2019-03-01T14:14:42.591Z,26.53
2019-03-01T14:17:12.643Z,26.10
2019-03-01T14:19:43.082Z,26.00
2019-03-01T14:22:13.980Z,23.57
2019-03-01T14:24:42.953Z,25.13
2019-03-01T14:27:13.104Z,21.63
2019-03-01T14:29:43.163Z,25.17
2019-03-01T14:32:15.366Z,25.27
2019-03-01T14:34:47.675Z,20.77
2019-03-01T14:37:15.119Z,24.83
2019-03-01T14:39:45.376Z,24.43
2019-03-01T14:42:13.233Z,25.07
2019-03-01T14:44:43.221Z,26.13
2019-03-01T14:47:13.282Z,27.23
2019-03-01T14:49:43.347Z,29.73
2019-03-01T14:52:13.383Z,27.13
2019-03-01T14:54:45.158Z,24.67
2019-03-01T14:57:20.187Z,34.30
2019-03-01T14:59:57.679Z,30.33
2019-03-01T15:02:40.638Z,30.53
2019-03-01T15:05:17.069Z,27.00
2019-03-01T15:07:38.229Z,26.50
2019-03-01T15:10:10.105Z,28.47
2019-03-01T15:12:40.180Z,28.00
2019-03-01T15:15:11.450Z,27.53
2019-03-01T15:17:41.665Z,29.20
2019-03-01T15:20:12.789Z,26.77
2019-03-01T15:22:45.594Z,25.67
2019-03-01T15:25:13.491Z,24.40
2019-03-01T15:27:43.528Z,27.03
2019-03-01T15:30:14.392Z,27.77
2019-03-01T15:32:44.467Z,26.60
2019-03-01T15:35:14.560Z,25.50
2019-03-01T15:37:44.983Z,27.00
2019-03-01T15:40:15.210Z,28.37
2019-03-01T15:42:45.293Z,28.23
2019-03-01T15:45:15.450Z,34.13
2019-03-01T15:47:45.523Z,28.80
2019-03-01T15:50:15.662Z,28.63
2019-03-01T15:52:49.676Z,33.13
2019-03-01T15:55:15.963Z,24.93
2019-03-01T15:57:45.988Z,26.00
2019-03-01T16:00:16.771Z,22.40
2019-03-01T16:02:49.921Z,22.33
2019-03-01T16:05:17.358Z,26.33
2019-03-01T16:07:47.448Z,29.27
2019-03-01T16:10:17.610Z,27.60
2019-03-01T16:12:47.675Z,31.97
2019-03-01T16:15:18.097Z,29.87
2019-03-01T16:17:48.135Z,30.13
2019-03-01T16:20:18.263Z,30.67
2019-03-01T16:22:50.998Z,30.13
2019-03-01T16:25:20.497Z,28.40
2019-03-01T16:27:50.763Z,30.73
2019-03-01T16:30:18.370Z,27.80
2019-03-01T16:32:50.563Z,27.20
2019-03-01T16:35:18.672Z,28.40
2019-03-01T16:37:49.947Z,29.63
2019-03-01T16:40:20.217Z,27.30
2019-03-01T16:42:54.329Z,25.77
2019-03-01T16:45:21.012Z,29.57
2019-03-01T16:47:50.579Z,26.93
2019-03-01T16:50:20.691Z,29.83
2019-03-01T16:52:50.821Z,29.10
2019-03-01T16:55:20.974Z,29.47
2019-03-01T16:57:52.280Z,30.57
2019-03-01T17:00:21.412Z,25.53
2019-03-01T17:02:51.604Z,32.23
2019-03-01T17:05:22.396Z,27.77
2019-03-01T17:07:52.419Z,23.10
2019-03-01T17:11:46.700Z,22.63
2019-03-01T17:14:16.764Z,16.57
2019-03-01T17:16:46.865Z,18.63
2019-03-01T17:19:16.917Z,23.03
2019-03-01T17:21:50.697Z,68.07
2019-03-01T17:24:17.143Z,43.40
2019-03-01T17:26:47.229Z,39.57
2019-03-01T17:29:17.250Z,46.17
2019-03-01T17:31:47.315Z,35.83
2019-03-01T17:34:17.338Z,29.43
2019-03-01T17:36:49.936Z,26.43
2019-03-01T17:39:20.074Z,22.23
2019-03-01T17:41:48.455Z,17.00
2019-03-01T17:44:17.873Z,19.33
2019-03-01T17:46:47.951Z,19.73
2019-03-01T17:49:18.008Z,22.37
2019-03-01T17:51:48.110Z,19.27
2019-03-01T17:54:19.085Z,17.07
2019-03-01T17:56:48.337Z,17.80
2019-03-01T17:59:18.351Z,18.03
2019-03-01T18:01:48.462Z,23.07
2019-03-01T18:04:18.506Z,22.00
2019-03-01T18:06:51.346Z,24.10
2019-03-01T18:09:18.734Z,20.63
2019-03-01T18:11:48.828Z,26.20
2019-03-01T18:14:18.863Z,21.70
2019-03-01T18:16:48.969Z,22.37
2019-03-01T18:19:18.447Z,21.87
2019-03-01T18:21:50.048Z,21.10
2019-03-01T18:24:18.547Z,26.40
2019-03-01T18:26:48.629Z,28.27
2019-03-01T18:29:18.660Z,30.17
2019-03-01T18:31:50.239Z,32.47
2019-03-01T18:34:18.859Z,27.70
2019-03-01T18:36:49.035Z,31.47
2019-03-01T18:39:19.082Z,32.50
2019-03-01T18:41:49.177Z,31.67
2019-03-01T18:44:22.310Z,27.13
2019-03-01T18:46:51.709Z,26.43
2019-03-01T18:49:19.734Z,24.80
2019-03-01T18:51:49.524Z,31.53
2019-03-01T18:54:19.554Z,23.83
2019-03-01T18:56:49.663Z,30.80
2019-03-01T18:59:21.718Z,34.07
2019-03-01T19:01:49.819Z,33.17
2019-03-01T19:04:29.383Z,27.93
2019-03-01T19:06:51.440Z,34.60
2019-03-01T19:09:20.762Z,31.73
2019-03-01T19:11:50.883Z,22.60
2019-03-01T19:14:20.941Z,20.83
2019-03-01T19:16:51.052Z,20.80
2019-03-01T19:19:23.972Z,20.17
2019-03-01T19:21:52.653Z,20.50
2019-03-01T19:24:21.353Z,21.23
2019-03-01T19:26:51.470Z,20.80
2019-03-01T19:29:21.521Z,23.33
2019-03-01T19:31:51.629Z,32.57
2019-03-01T19:34:21.665Z,24.40
2019-03-01T19:36:51.795Z,33.53
2019-03-01T19:39:22.999Z,34.33
2019-03-01T19:41:54.635Z,25.07
2019-03-01T19:44:25.677Z,24.70
2019-03-01T19:46:53.587Z,23.63
2019-03-01T19:49:26.659Z,23.43
2019-03-01T19:51:56.838Z,22.83
2019-03-01T19:54:26.966Z,22.53
2019-03-01T19:56:57.668Z,25.00
2019-03-01T19:59:27.279Z,26.03
2019-03-01T20:01:57.572Z,25.20
2019-03-01T20:04:27.813Z,27.83
2019-03-01T20:06:58.143Z,26.10
2019-03-01T20:09:28.617Z,27.93
2019-03-01T20:11:59.174Z,36.10
2019-03-01T20:14:30.349Z,25.63
2019-03-01T20:16:59.235Z,25.53
2019-03-01T20:19:29.363Z,36.37
2019-03-01T20:21:59.570Z,73.47
2019-03-01T20:24:29.689Z,63.47
2019-03-01T20:27:02.829Z,96.10
2019-03-01T20:29:30.084Z,75.47
2019-03-01T20:32:00.459Z,39.70
2019-03-01T20:34:31.330Z,26.53
2019-03-01T20:37:01.077Z,26.37
2019-03-01T20:39:33.182Z,23.87
2019-03-01T20:42:01.407Z,24.37
2019-03-01T20:44:30.908Z,25.70
2019-03-01T20:47:01.401Z,23.30
2019-03-01T20:49:31.854Z,23.20
2019-03-01T20:52:03.493Z,22.73
2019-03-01T20:54:32.580Z,24.37
2019-03-01T20:57:03.169Z,24.83
2019-03-01T20:59:33.799Z,28.30
2019-03-01T21:02:06.154Z,24.37
2019-03-01T21:04:36.636Z,30.97
2019-03-01T21:07:05.536Z,32.23
2019-03-01T21:09:37.704Z,61.17
2019-03-01T21:12:06.660Z,34.50
2019-03-01T21:14:37.054Z,22.80
2019-03-01T21:17:06.883Z,22.60
2019-03-01T21:19:37.403Z,24.00
2019-03-01T21:22:07.578Z,21.77
2019-03-01T21:24:37.984Z,22.27
2019-03-01T21:27:08.262Z,19.20
2019-03-01T21:29:38.642Z,20.37
2019-03-01T21:32:11.736Z,18.77
2019-03-01T21:34:39.666Z,23.03
2019-03-01T21:37:10.109Z,21.33
2019-03-01T21:39:40.538Z,21.10
2019-03-01T21:42:11.210Z,20.17
2019-03-01T21:44:42.706Z,32.37
2019-03-01T21:47:13.622Z,40.10
2019-03-01T21:49:42.636Z,28.50
2019-03-01T21:52:13.179Z,30.67
2019-03-01T21:54:43.403Z,34.83
2019-03-01T21:57:13.541Z,30.33
2019-03-01T21:59:43.070Z,31.37
2019-03-01T22:02:16.877Z,29.93
2019-03-01T22:04:44.112Z,35.13
2019-03-01T22:07:14.264Z,30.00
2019-03-01T22:09:44.524Z,25.80
2019-03-01T22:12:15.157Z,27.27
2019-03-01T22:14:45.720Z,28.03
2019-03-01T22:17:15.920Z,28.93
2019-03-01T22:19:46.176Z,26.20
2019-03-01T22:22:16.517Z,24.17
2019-03-01T22:24:46.951Z,23.80
2019-03-01T22:27:17.434Z,26.83
2019-03-01T22:29:48.473Z,25.30
2019-03-01T22:32:18.246Z,25.73
2019-03-01T22:34:48.715Z,24.83
2019-03-01T22:37:18.815Z,24.13
2019-03-01T22:39:51.448Z,25.83
2019-03-01T22:42:19.605Z,28.80
2019-03-01T22:44:49.955Z,31.50
2019-03-01T22:47:19.734Z,27.93
2019-03-01T22:49:49.978Z,27.87
2019-03-01T22:52:20.491Z,28.70
2019-03-01T22:54:50.765Z,31.67
2019-03-01T22:57:22.656Z,30.57
2019-03-01T22:59:51.802Z,35.90
2019-03-01T23:02:23.143Z,32.00
2019-03-01T23:04:53.407Z,28.70
2019-03-01T23:07:26.434Z,29.77
2019-03-01T23:09:54.603Z,28.67
2019-03-01T23:12:25.015Z,32.13
2019-03-01T23:14:55.515Z,30.83
2019-03-01T23:17:27.584Z,27.37
2019-03-01T23:19:56.429Z,22.82
2019-03-01T23:22:26.866Z,23.30
2019-03-01T23:24:57.196Z,24.10
2019-03-01T23:27:28.512Z,22.33
2019-03-01T23:29:57.454Z,23.90
2019-03-01T23:32:27.821Z,20.88
2019-03-01T23:34:58.187Z,25.87
2019-03-01T23:37:28.629Z,21.07
2019-03-01T23:40:00.976Z,24.70
2019-03-01T23:42:29.659Z,22.55
2019-03-01T23:44:59.469Z,21.20
2019-03-01T23:47:29.811Z,22.73
2019-03-01T23:50:00.599Z,21.77
2019-03-01T23:52:30.751Z,23.00
2019-03-01T23:55:01.179Z,26.70
2019-03-01T23:57:31.527Z,20.43
